Time;durP1;ratioP1;P1;durP2;ratioP2;P2;SDS_P1;SDS_P2;PMS_P1;PMS_P2;Temp;Humidity;BMP_temperature;BMP_pressure;BME280_temperature;BME280_humidity;BME280_pressure;Samples;Min_cycle;Max_cycle;Signal;HPM_P1;HPM_P2
2021/08/28 00:02:07;;;;;;;9.68;3.90;;;;;;;10.22;74.99;100662.30;1645269;86;20972;-82
2021/08/28 00:04:34;;;;;;;5.67;3.72;;;;;;;10.17;74.90;100664.48;1642555;86;21809;-81
2021/08/28 00:07:02;;;;;;;4.15;3.75;;;;;;;10.16;75.01;100660.20;1625142;86;20934;-81
2021/08/28 00:09:28;;;;;;;5.87;3.83;;;;;;;10.14;74.99;100665.39;1620202;86;21456;-81
2021/08/28 00:11:54;;;;;;;4.30;3.52;;;;;;;10.11;74.93;100658.97;1630821;86;20970;-81
2021/08/28 00:14:21;;;;;;;3.67;3.33;;;;;;;10.08;74.88;100663.31;1631372;86;21490;-81
2021/08/28 00:16:47;;;;;;;3.80;3.45;;;;;;;10.05;75.03;100664.65;1608794;86;21521;-81
2021/08/28 00:19:15;;;;;;;4.40;3.62;;;;;;;10.02;74.98;100660.37;1634040;86;21946;-81
2021/08/28 00:21:41;;;;;;;3.95;3.08;;;;;;;9.98;74.92;100663.87;1647272;86;21511;-81
2021/08/28 00:24:07;;;;;;;7.20;3.70;;;;;;;9.92;74.90;100660.93;1624581;86;21447;-81
2021/08/28 00:26:35;;;;;;;4.50;4.10;;;;;;;9.87;75.04;100661.45;1637393;86;21825;-81
2021/08/28 00:29:01;;;;;;;3.98;3.40;;;;;;;9.85;75.11;100658.47;1614168;86;21467;-81
2021/08/28 00:31:27;;;;;;;5.87;3.55;;;;;;;9.85;75.11;100654.16;1622586;86;20966;-81
2021/08/28 00:33:56;;;;;;;3.77;3.45;;;;;;;9.84;75.19;100660.64;1649735;86;21805;-81
2021/08/28 00:36:22;;;;;;;4.35;3.90;;;;;;;9.86;75.22;100660.18;1632865;86;20952;-81
2021/08/28 00:38:49;;;;;;;3.10;2.80;;;;;;;9.83;75.20;100659.78;1624570;86;21820;-81
2021/08/28 00:41:16;;;;;;;3.27;2.90;;;;;;;9.78;75.08;100659.42;1641384;86;20885;-81
2021/08/28 00:43:42;;;;;;;2.92;2.62;;;;;;;9.73;75.07;100658.62;1645730;86;21010;-81
2021/08/28 00:46:09;;;;;;;3.00;2.80;;;;;;;9.69;75.08;100655.66;1615090;87;21084;-81
2021/08/28 00:48:36;;;;;;;5.22;2.85;;;;;;;9.65;75.23;100655.27;1619833;87;21562;-81
2021/08/28 00:51:02;;;;;;;3.30;2.75;;;;;;;9.63;75.23;100655.28;1634217;87;21649;-81
2021/08/28 00:53:29;;;;;;;5.15;3.65;;;;;;;9.62;75.31;100653.58;1661113;84;21413;-81
2021/08/28 00:55:55;;;;;;;4.00;3.70;;;;;;;9.57;75.17;100657.50;1666761;85;21017;-81
2021/08/28 00:58:22;;;;;;;7.20;4.62;;;;;;;9.53;75.19;100654.97;1645751;86;21437;-81
2021/08/28 01:00:54;;;;;;;;;;;;;;;9.52;75.37;100650.24;1654363;85;21355;-81
2021/08/28 01:03:24;;;;;;;4.28;3.35;;;;;;;9.49;75.47;100653.29;1611754;87;20929;-81
2021/08/28 01:06:08;;;;;;;4.30;3.25;;;;;;;9.46;75.39;100653.33;1670655;84;20902;-82
2021/08/28 01:08:51;;;;;;;4.45;3.75;;;;;;;9.47;75.50;100658.91;1662371;85;20916;-82
2021/08/28 01:11:34;;;;;;;5.50;3.37;;;;;;;9.43;75.27;100664.97;1637762;86;20870;-81
2021/08/28 01:14:14;;;;;;;3.50;3.15;;;;;;;9.38;75.34;100668.89;1660300;85;20911;-81
2021/08/28 01:16:45;;;;;;;5.35;3.52;;;;;;;9.33;75.37;100671.98;1646853;85;20989;-81
2021/08/28 01:19:19;;;;;;;3.85;3.52;;;;;;;9.33;75.58;100665.97;1659504;85;20954;-81
2021/08/28 01:21:46;;;;;;;4.58;4.17;;;;;;;9.33;75.49;100673.70;1640752;86;21265;-81
2021/08/28 01:24:15;;;;;;;4.75;3.10;;;;;;;9.30;75.54;100677.17;1661326;85;20923;-81
2021/08/28 01:26:47;;;;;;;8.15;3.33;;;;;;;9.27;75.50;100671.61;1690808;84;20933;-81
2021/08/28 01:29:23;;;;;;;4.25;3.27;;;;;;;9.25;75.44;100676.36;1674385;84;20883;-81
2021/08/28 01:31:53;;;;;;;3.27;2.98;;;;;;;9.23;75.56;100676.81;1684926;84;21519;-81
2021/08/28 01:34:20;;;;;;;4.22;3.45;;;;;;;9.21;75.52;100665.22;1680864;84;20855;-81
2021/08/28 01:36:47;;;;;;;6.78;3.47;;;;;;;9.20;75.68;100667.37;1676306;84;21337;-81
2021/08/28 01:39:15;;;;;;;3.52;3.22;;;;;;;9.17;75.55;100676.87;1695538;84;20957;-81
2021/08/28 01:41:49;;;;;;;3.70;2.80;;;;;;;9.12;75.47;100676.91;1669226;84;20895;-81
2021/08/28 01:44:16;;;;;;;3.98;3.58;;;;;;;9.05;75.39;100676.97;1663772;84;20921;-81
2021/08/28 01:46:44;;;;;;;4.17;3.30;;;;;;;8.99;75.46;100680.89;1686907;84;20901;-81
2021/08/28 01:49:13;;;;;;;2.72;2.52;;;;;;;8.94;75.55;100678.35;1678941;84;20950;-81
2021/08/28 01:51:40;;;;;;;3.70;3.40;;;;;;;8.92;75.57;100682.23;1684804;84;20906;-81
2021/08/28 01:54:07;;;;;;;4.58;3.55;;;;;;;8.93;75.72;100676.20;1674044;84;20962;-81
2021/08/28 01:56:34;;;;;;;3.77;3.40;;;;;;;8.94;75.77;100678.35;1693075;83;21208;-81
2021/08/28 01:59:01;;;;;;;4.60;3.35;;;;;;;8.95;75.74;100673.61;1683571;83;20949;-81
2021/08/28 02:01:28;;;;;;;3.52;3.22;;;;;;;8.90;75.63;100678.81;1670986;84;20913;-81
2021/08/28 02:03:54;;;;;;;6.97;3.17;;;;;;;8.89;75.66;100677.09;1692115;83;20964;-81
2021/08/28 02:06:38;;;;;;;3.75;2.87;;;;;;;8.87;75.71;100674.97;1688238;84;21342;-81
2021/08/28 02:09:10;;;;;;;4.40;2.80;;;;;;;8.85;75.74;100678.42;1680916;84;20984;-81
2021/08/28 02:11:47;;;;;;;3.83;2.60;;;;;;;8.80;75.61;100680.22;1680756;84;20872;-81
2021/08/28 02:14:28;;;;;;;4.58;2.90;;;;;;;8.75;75.62;100686.69;1649762;86;20934;-81
2021/08/28 02:17:07;;;;;;;6.20;3.42;;;;;;;8.72;75.72;100683.28;1630260;86;20942;-81
2021/08/28 02:19:38;;;;;;;3.67;3.30;;;;;;;8.65;75.76;100682.91;1660121;85;20877;-81
2021/08/28 02:22:12;;;;;;;4.55;3.00;;;;;;;8.64;75.86;100682.05;1664461;85;20884;-81
2021/08/28 02:24:42;;;;;;;3.00;2.80;;;;;;;8.65;75.93;100678.60;1659714;85;20939;-81
2021/08/28 02:27:13;;;;;;;3.47;2.87;;;;;;;8.66;75.87;100679.02;1657770;85;20879;-81
2021/08/28 02:29:48;;;;;;;3.50;3.20;;;;;;;8.63;75.79;100678.61;1659454;85;20879;-81
2021/08/28 02:32:16;;;;;;;4.08;2.85;;;;;;;8.59;75.85;100680.79;1655165;85;415181;-81
2021/08/28 02:34:44;;;;;;;4.03;2.58;;;;;;;8.55;75.84;100683.39;1651220;86;20930;-81
2021/08/28 02:37:12;;;;;;;2.98;2.75;;;;;;;8.54;75.92;100681.69;1648473;85;20880;-82
2021/08/28 02:39:40;;;;;;;3.50;3.20;;;;;;;8.52;75.87;100679.12;1645037;86;20938;-82
2021/08/28 02:42:07;;;;;;;4.78;4.37;;;;;;;8.49;75.94;100688.16;1647981;85;21482;-81
2021/08/28 02:44:34;;;;;;;5.58;3.58;;;;;;;8.46;75.87;100689.46;1640240;85;408027;-81
2021/08/28 02:47:06;;;;;;;4.03;3.58;;;;;;;8.46;76.08;100682.16;1692719;83;20925;-81
2021/08/28 02:49:35;;;;;;;3.12;2.72;;;;;;;8.44;75.93;100690.34;1696501;83;20936;-81
2021/08/28 02:52:03;;;;;;;4.87;2.60;;;;;;;8.41;75.96;100693.79;1689602;83;20932;-81
2021/08/28 02:54:34;;;;;;;4.20;2.77;;;;;;;8.37;75.88;100688.23;1689063;83;20972;-81
2021/08/28 02:57:00;;;;;;;6.12;2.52;;;;;;;8.37;76.04;100689.95;1687631;83;21451;-82
2021/08/28 02:59:28;;;;;;;3.77;3.33;;;;;;;8.36;75.97;100688.23;1694767;83;20984;-82
2021/08/28 03:01:56;;;;;;;4.00;3.52;;;;;;;8.29;75.91;100695.14;1702121;83;20866;-82
2021/08/28 03:04:24;;;;;;;3.67;3.35;;;;;;;8.25;76.01;100693.45;1689260;83;21398;-82
2021/08/28 03:06:51;;;;;;;4.55;3.60;;;;;;;8.23;76.07;100692.16;1687840;83;20957;-82
2021/08/28 03:09:17;;;;;;;4.30;3.08;;;;;;;8.23;76.14;100693.45;1690365;83;21099;-82
2021/08/28 03:11:45;;;;;;;3.95;2.87;;;;;;;8.25;76.21;100693.02;1693819;83;20961;-82
2021/08/28 03:14:12;;;;;;;4.00;3.08;;;;;;;8.19;75.92;100699.48;1693350;83;20949;-82
2021/08/28 03:16:43;;;;;;;3.90;3.60;;;;;;;8.14;76.05;100697.79;1690268;83;20928;-82
2021/08/28 03:19:11;;;;;;;4.15;3.25;;;;;;;8.15;76.23;100693.92;1694418;83;20888;-82
2021/08/28 03:21:52;;;;;;;3.45;3.00;;;;;;;8.17;76.29;100693.91;1692796;83;20881;-82
2021/08/28 03:24:25;;;;;;;4.00;3.52;;;;;;;8.16;76.22;100694.78;1700691;83;20954;-82
2021/08/28 03:26:55;;;;;;;5.17;3.67;;;;;;;8.13;76.12;100694.36;1685707;83;20972;-81
2021/08/28 03:29:24;;;;;;;3.98;3.47;;;;;;;8.13;76.23;100697.37;1688068;83;20956;-81
2021/08/28 03:31:52;;;;;;;6.60;4.95;;;;;;;8.11;76.26;100699.95;1691178;83;20981;-81
2021/08/28 03:34:20;;;;;;;7.85;4.05;;;;;;;8.13;76.40;100698.66;1691129;82;20924;-81
2021/08/28 03:36:47;;;;;;;9.58;4.40;;;;;;;8.15;76.51;100695.64;1697148;83;20939;-81
2021/08/28 03:39:16;;;;;;;8.80;4.80;;;;;;;8.17;76.47;100697.78;1701318;83;20881;-81
2021/08/28 03:41:47;;;;;;;11.50;4.37;;;;;;;8.18;76.37;100699.48;1692061;83;20915;-81
2021/08/28 03:44:17;;;;;;;4.40;4.00;;;;;;;8.10;76.23;100703.39;1695505;83;20893;-81
2021/08/28 03:46:46;;;;;;;6.58;3.65;;;;;;;8.08;76.36;100697.82;1693998;83;21499;-81
2021/08/28 03:49:13;;;;;;;12.80;4.05;;;;;;;8.07;76.34;100706.41;1697992;82;20952;-81
2021/08/28 03:51:42;;;;;;;4.47;4.12;;;;;;;8.05;76.36;100708.98;1699559;83;20877;-81
2021/08/28 03:54:08;;;;;;;6.67;6.00;;;;;;;8.02;76.34;100712.00;1690679;83;20961;-81
2021/08/28 03:56:35;;;;;;;10.93;5.55;;;;;;;7.98;76.34;100706.87;1698553;83;20951;-81
2021/08/28 03:59:11;;;;;;;7.22;5.20;;;;;;;8.01;76.53;100706.43;1688720;83;20980;-81
2021/08/28 04:01:37;;;;;;;15.78;8.50;;;;;;;8.02;76.55;100702.56;1697918;83;20916;-81
2021/08/28 04:04:04;;;;;;;17.30;9.10;;;;;;;8.01;76.47;100707.29;1689491;83;20948;-81
2021/08/28 04:06:30;;;;;;;13.08;9.88;;;;;;;7.96;76.32;100709.02;1695672;83;20923;-81
2021/08/28 04:08:57;;;;;;;14.18;10.63;;;;;;;7.95;76.59;100701.73;1692910;83;20956;-81
2021/08/28 04:11:23;;;;;;;12.70;9.23;;;;;;;7.98;76.53;100702.15;1696693;83;20949;-81
2021/08/28 04:13:49;;;;;;;8.40;6.87;;;;;;;7.97;76.56;100703.02;1691943;83;20940;-81
2021/08/28 04:16:16;;;;;;;6.05;5.28;;;;;;;7.98;76.57;100703.00;1701978;82;20943;-81
2021/08/28 04:18:43;;;;;;;11.00;6.15;;;;;;;8.00;76.59;100701.72;1689594;83;20913;-81
2021/08/28 04:21:09;;;;;;;12.20;8.08;;;;;;;8.00;76.55;100700.86;1697779;83;20932;-81
2021/08/28 04:23:36;;;;;;;9.75;6.85;;;;;;;7.98;76.56;100696.57;1687767;83;20964;-81
2021/08/28 04:26:04;;;;;;;11.03;8.05;;;;;;;7.98;76.61;100710.73;1688409;83;20912;-81
2021/08/28 04:28:31;;;;;;;8.78;7.83;;;;;;;7.98;76.57;100708.16;1700870;83;20973;-81
2021/08/28 04:30:57;;;;;;;9.65;7.50;;;;;;;7.97;76.56;100711.59;1691266;83;20881;-81
2021/08/28 04:33:23;;;;;;;9.00;8.10;;;;;;;7.96;76.58;100713.74;1687226;83;20991;-81
2021/08/28 04:35:50;;;;;;;11.05;7.58;;;;;;;7.99;76.79;100709.02;1681049;83;21115;-81
2021/08/28 04:38:16;;;;;;;12.45;8.63;;;;;;;8.05;76.82;100708.13;1691113;83;21066;-81
2021/08/28 04:40:42;;;;;;;9.78;8.73;;;;;;;8.09;76.89;100712.41;1695836;83;21066;-81
2021/08/28 04:43:09;;;;;;;8.95;7.90;;;;;;;8.11;76.78;100704.25;1686491;83;21051;-81
2021/08/28 04:45:35;;;;;;;11.38;8.85;;;;;;;8.10;76.85;100711.55;1693868;83;21083;-81
2021/08/28 04:48:02;;;;;;;13.90;7.47;;;;;;;8.14;76.80;100711.95;1697926;83;21059;-81
2021/08/28 04:50:29;;;;;;;9.98;8.95;;;;;;;8.17;76.93;100717.95;1697480;83;21040;-81
2021/08/28 04:52:55;;;;;;;14.18;9.48;;;;;;;8.22;76.88;100730.38;1686369;83;21071;-81
2021/08/28 04:55:22;;;;;;;9.35;8.45;;;;;;;8.24;76.85;100726.08;1698931;83;21118;-81
2021/08/28 04:57:49;;;;;;;10.15;9.15;;;;;;;8.30;76.98;100725.19;1689250;83;21059;-81
2021/08/28 05:00:16;;;;;;;10.25;9.20;;;;;;;8.37;76.96;100720.87;1698719;83;21063;-81
2021/08/28 05:02:42;;;;;;;9.65;8.70;;;;;;;8.44;76.89;100721.26;1680661;83;21111;-82
2021/08/28 05:05:11;;;;;;;10.98;9.18;;;;;;;8.42;76.84;100721.27;1691695;83;21044;-81
2021/08/28 05:07:38;;;;;;;10.53;9.20;;;;;;;8.47;76.93;100722.09;1684907;83;21103;-81
2021/08/28 05:10:05;;;;;;;12.18;9.53;;;;;;;8.59;77.17;100715.58;1684442;83;21072;-81
2021/08/28 05:12:33;;;;;;;10.55;8.60;;;;;;;8.73;77.23;100716.78;1683019;84;21055;-81
2021/08/28 05:15:00;;;;;;;10.53;7.80;;;;;;;8.89;77.32;100717.07;1683815;83;21072;-81
2021/08/28 05:17:27;;;;;;;9.43;7.85;;;;;;;9.09;77.39;100716.92;1683479;85;21119;-81
2021/08/28 05:19:55;;;;;;;10.18;7.28;;;;;;;9.35;77.52;100708.95;1683616;85;21095;-81
2021/08/28 05:22:21;;;;;;;7.65;7.00;;;;;;;9.64;77.44;100708.63;1684505;84;21111;-81
2021/08/28 05:24:47;;;;;;;6.58;5.97;;;;;;;9.94;77.40;100713.86;1666169;84;21116;-81
2021/08/28 05:27:17;;;;;;;5.97;5.47;;;;;;;10.27;77.41;100717.36;1649377;85;21116;-81
2021/08/28 05:29:43;;;;;;;8.00;6.78;;;;;;;10.66;77.45;100715.51;1629951;86;21119;-81
2021/08/28 05:32:10;;;;;;;7.08;6.42;;;;;;;11.03;77.33;100716.62;1653580;85;21066;-81
2021/08/28 05:34:51;;;;;;;7.03;6.28;;;;;;;11.45;77.34;100716.75;1643735;86;21072;-81
2021/08/28 05:37:17;;;;;;;8.28;6.45;;;;;;;11.89;77.31;100718.11;1651155;86;21123;-81
2021/08/28 05:39:44;;;;;;;6.62;6.03;;;;;;;12.30;77.29;100722.86;1651916;85;21137;-81
2021/08/28 05:42:10;;;;;;;5.83;5.33;;;;;;;12.65;77.15;100720.77;1653506;86;21069;-81
2021/08/28 05:44:36;;;;;;;6.00;5.50;;;;;;;12.90;77.08;100714.12;1653759;86;21068;-81
2021/08/28 05:47:03;;;;;;;7.33;5.90;;;;;;;13.16;77.06;100718.68;1656272;85;21082;-81
2021/08/28 05:49:29;;;;;;;5.75;5.25;;;;;;;13.39;77.04;100713.35;1645845;85;21114;-81
2021/08/28 05:52:03;;;;;;;5.37;4.87;;;;;;;13.62;77.01;100711.42;1647701;85;21068;-81
2021/08/28 05:54:29;;;;;;;5.75;4.22;;;;;;;13.88;77.08;100711.11;1646268;85;21024;-81
2021/08/28 05:56:56;;;;;;;5.53;5.00;;;;;;;14.18;77.21;100716.31;1636590;85;21104;-81
2021/08/28 05:59:22;;;;;;;5.35;4.85;;;;;;;14.49;77.25;100720.19;1645380;85;21083;-81
2021/08/28 06:01:48;;;;;;;8.63;4.85;;;;;;;14.78;77.19;100717.96;1644136;84;21116;-81
2021/08/28 06:04:15;;;;;;;4.90;4.50;;;;;;;15.10;77.21;100715.14;1647047;85;21153;-81
2021/08/28 06:06:41;;;;;;;4.92;4.50;;;;;;;15.43;77.30;100713.62;1642125;85;21096;-81
2021/08/28 06:09:07;;;;;;;5.85;5.22;;;;;;;15.76;77.26;100716.81;1648425;85;21151;-81
2021/08/28 06:11:34;;;;;;;6.25;5.75;;;;;;;16.00;76.94;100726.81;1645007;85;21084;-81
2021/08/28 06:14:00;;;;;;;9.70;5.58;;;;;;;16.12;76.85;100728.48;1642116;85;21127;-81
2021/08/28 06:16:27;;;;;;;5.35;4.85;;;;;;;16.29;76.88;100725.70;1647755;85;21119;-81
2021/08/28 06:18:53;;;;;;;6.65;6.08;;;;;;;16.45;76.82;100724.22;1640285;85;21116;-81
2021/08/28 06:21:19;;;;;;;6.62;6.03;;;;;;;16.57;76.72;100725.05;1638309;85;21092;-81
2021/08/28 06:23:46;;;;;;;6.85;5.85;;;;;;;16.70;76.79;100726.73;1625945;85;21162;-81
2021/08/28 06:26:15;;;;;;;5.95;5.45;;;;;;;16.90;76.75;100724.17;1632514;86;21099;-81
2021/08/28 06:28:41;;;;;;;7.87;6.08;;;;;;;17.12;76.85;100721.55;1642427;85;21601;-81
2021/08/28 06:31:07;;;;;;;5.92;5.42;;;;;;;17.38;76.78;100711.28;1662822;85;21141;-80
2021/08/28 06:33:34;;;;;;;8.00;5.62;;;;;;;17.60;76.73;100719.91;1646752;85;21130;-80
2021/08/28 06:36:00;;;;;;;6.22;5.72;;;;;;;17.84;76.62;100714.92;1645055;85;21095;-80
2021/08/28 06:38:26;;;;;;;5.37;4.92;;;;;;;17.98;76.44;100716.07;1649578;85;21517;-81
2021/08/28 06:40:53;;;;;;;5.80;5.22;;;;;;;18.17;76.51;100721.72;1643704;85;21072;-80
2021/08/28 06:43:20;;;;;;;6.20;4.60;;;;;;;18.26;76.22;100715.18;1648106;85;26574;-80
2021/08/28 06:45:49;;;;;;;6.10;5.28;;;;;;;18.48;76.46;100715.88;1650153;85;21120;-80
2021/08/28 06:48:17;;;;;;;5.62;5.12;;;;;;;18.69;76.28;100714.05;1651537;85;21669;-80
2021/08/28 06:50:44;;;;;;;7.45;5.75;;;;;;;18.84;76.20;100716.36;1647600;84;21120;-80
2021/08/28 06:53:10;;;;;;;5.83;5.33;;;;;;;18.90;75.95;100711.29;1639958;85;21094;-80
2021/08/28 06:55:37;;;;;;;5.80;5.35;;;;;;;18.96;75.91;100713.15;1629315;87;21091;-80
2021/08/28 06:58:03;;;;;;;6.05;5.45;;;;;;;19.13;76.08;100707.08;1635653;87;21166;-81
2021/08/28 07:00:30;;;;;;;6.67;4.72;;;;;;;19.25;75.78;100706.89;1628727;85;21119;-81
2021/08/28 07:02:56;;;;;;;6.05;4.80;;;;;;;19.36;75.92;100711.14;1636669;85;21084;-80
2021/08/28 07:05:23;;;;;;;5.15;4.75;;;;;;;19.50;75.80;100713.44;1649131;85;21108;-80
2021/08/28 07:07:49;;;;;;;5.70;5.20;;;;;;;19.70;75.74;100715.07;1650366;85;21105;-80
2021/08/28 07:10:17;;;;;;;5.28;4.83;;;;;;;19.74;75.58;100680.34;1654792;85;21491;-80
2021/08/28 07:12:44;;;;;;;6.20;4.35;;;;;;;20.06;75.41;100714.87;1658638;85;20973;-80
2021/08/28 07:15:11;;;;;;;4.67;4.28;;;;;;;20.21;75.23;100709.73;1649266;85;21481;-80
2021/08/28 07:17:38;;;;;;;5.33;4.92;;;;;;;20.38;75.12;100720.16;1650699;84;20975;-82
2021/08/28 07:20:06;;;;;;;5.08;4.67;;;;;;;20.57;75.10;100716.91;1644240;85;21425;-81
2021/08/28 07:22:35;;;;;;;4.78;4.37;;;;;;;20.73;75.03;100711.17;1647207;85;21433;-81
2021/08/28 07:25:01;;;;;;;4.37;4.00;;;;;;;20.97;74.96;100715.47;1648499;85;21118;-81
2021/08/28 07:27:28;;;;;;;4.67;4.00;;;;;;;21.20;74.82;100714.61;1640560;85;21100;-81
2021/08/28 07:29:54;;;;;;;4.50;4.10;;;;;;;21.41;74.48;100712.04;1643018;85;21501;-82
2021/08/28 07:32:20;;;;;;;4.55;4.15;;;;;;;21.44;74.27;100715.80;1648024;84;21106;-83
2021/08/28 07:34:47;;;;;;;3.45;3.15;;;;;;;21.53;74.29;100720.98;1650747;85;21023;-80
2021/08/28 07:37:13;;;;;;;4.95;3.27;;;;;;;21.76;74.32;100719.98;1616342;85;21087;-81
2021/08/28 07:39:40;;;;;;;4.15;3.37;;;;;;;21.86;74.10;100716.77;1654148;85;21013;-82
2021/08/28 07:42:07;;;;;;;5.33;3.77;;;;;;;22.09;74.34;100720.17;1649147;85;25283;-81
2021/08/28 07:44:33;;;;;;;4.97;3.15;;;;;;;22.30;74.28;100714.89;1640386;85;21121;-82
2021/08/28 07:46:59;;;;;;;4.00;3.05;;;;;;;22.49;74.20;100725.08;1634637;85;21157;-82
2021/08/28 07:49:32;;;;;;;3.40;3.10;;;;;;;22.60;74.02;100721.76;1640773;85;21569;-81
2021/08/28 07:51:58;;;;;;;5.37;4.35;;;;;;;22.57;73.63;100722.80;1652112;86;21082;-81
2021/08/28 07:54:25;;;;;;;3.20;3.00;;;;;;;22.62;73.57;100714.59;1652027;85;21021;-81
2021/08/28 07:56:51;;;;;;;3.40;3.10;;;;;;;22.91;73.37;100722.78;1650623;85;21097;-82
2021/08/28 07:59:18;;;;;;;3.02;2.72;;;;;;;23.29;72.67;100724.68;1640730;86;22217;-82
2021/08/28 08:01:44;;;;;;;2.60;2.40;;;;;;;23.33;72.21;100721.73;1645389;85;21092;-81
2021/08/28 08:04:11;;;;;;;3.42;2.92;;;;;;;23.34;72.08;100723.90;1634120;85;20993;-81
2021/08/28 08:06:37;;;;;;;3.58;2.37;;;;;;;23.39;71.70;100721.32;1637568;85;21105;-81
2021/08/28 08:09:05;;;;;;;2.60;2.42;;;;;;;23.41;71.42;100725.14;1639435;85;21104;-81
2021/08/28 08:11:39;;;;;;;2.85;2.33;;;;;;;23.33;71.14;100722.20;1637072;85;20997;-83
2021/08/28 08:14:05;;;;;;;2.77;2.40;;;;;;;23.17;71.07;100723.70;1646622;85;22163;-83
2021/08/28 08:16:32;;;;;;;3.70;2.70;;;;;;;23.03;71.00;100724.62;1651578;85;21112;-83
2021/08/28 08:18:59;;;;;;;2.00;1.90;;;;;;;22.86;70.87;100720.11;1649318;86;21545;-83
2021/08/28 08:21:26;;;;;;;2.25;2.05;;;;;;;22.82;70.96;100718.14;1647082;86;21057;-83
2021/08/28 08:23:52;;;;;;;2.02;1.60;;;;;;;22.84;70.75;100721.52;1657240;85;21065;-82
2021/08/28 08:26:19;;;;;;;2.15;2.05;;;;;;;22.79;70.61;100720.98;1652494;85;21018;-83
2021/08/28 08:28:45;;;;;;;1.80;1.70;;;;;;;22.80;70.43;100724.46;1651125;85;21566;-83
2021/08/28 08:31:12;;;;;;;2.27;1.92;;;;;;;22.75;70.30;100722.94;1648554;85;21513;-83
2021/08/28 08:33:38;;;;;;;2.90;1.92;;;;;;;22.72;70.20;100724.45;1630465;87;21075;-82
2021/08/28 08:36:05;;;;;;;2.27;1.60;;;;;;;22.71;70.02;100721.91;1642606;85;20989;-82
2021/08/28 08:38:38;;;;;;;2.95;1.95;;;;;;;22.69;69.77;100722.48;1615138;87;21087;-82
2021/08/28 08:41:05;;;;;;;3.92;2.05;;;;;;;22.63;69.52;100719.77;1642821;87;21045;-82
2021/08/28 08:43:32;;;;;;;3.77;2.05;;;;;;;22.78;69.21;100713.98;1628672;86;21568;-82
2021/08/28 08:45:59;;;;;;;3.17;1.70;;;;;;;23.00;69.00;100716.06;1642411;85;21077;-82
2021/08/28 08:48:27;;;;;;;3.80;1.90;;;;;;;23.24;69.08;100715.75;1650245;85;21029;-82
2021/08/28 08:50:56;;;;;;;3.33;2.08;;;;;;;23.48;69.21;100713.22;1652368;85;21392;-82
2021/08/28 08:53:29;;;;;;;2.25;1.87;;;;;;;23.83;69.87;100712.16;1649422;85;366247;-82
2021/08/28 08:55:56;;;;;;;3.33;1.60;;;;;;;24.40;70.17;100716.45;1657309;85;21458;-82
2021/08/28 08:58:23;;;;;;;1.82;1.72;;;;;;;25.11;70.00;100716.53;1653753;85;21017;-82
2021/08/28 09:00:50;;;;;;;2.50;1.95;;;;;;;25.68;69.39;100716.08;1652098;85;21457;-82
2021/08/28 09:03:23;;;;;;;1.40;1.30;;;;;;;26.02;68.74;100724.86;1626284;86;21580;-82
2021/08/28 09:05:50;;;;;;;1.65;1.55;;;;;;;25.32;67.29;100721.05;1649700;85;21082;-82
2021/08/28 09:08:16;;;;;;;3.40;1.50;;;;;;;24.43;67.30;100730.39;1652484;85;21565;-82
2021/08/28 09:10:44;;;;;;;2.20;2.05;;;;;;;23.76;67.22;100725.41;1651802;85;21524;-82
2021/08/28 09:13:19;;;;;;;2.83;1.35;;;;;;;23.26;67.16;100724.88;1652358;85;21527;-82
2021/08/28 09:15:49;;;;;;;2.02;1.55;;;;;;;22.88;67.00;100732.69;1651051;85;21017;-81
2021/08/28 09:18:16;;;;;;;2.50;1.47;;;;;;;22.47;66.77;100729.59;1641255;85;21589;-82
2021/08/28 09:20:44;;;;;;;1.30;1.20;;;;;;;22.12;66.49;100730.05;1687585;84;21482;-82
2021/08/28 09:23:21;;;;;;;1.27;1.20;;;;;;;21.80;66.33;100733.81;1688075;83;21591;-82
2021/08/28 09:25:52;;;;;;;1.70;1.30;;;;;;;21.51;66.24;100731.60;1685094;83;21125;-82
2021/08/28 09:28:21;;;;;;;1.30;1.20;;;;;;;21.38;66.13;100724.05;1687550;83;21488;-82
2021/08/28 09:31:02;;;;;;;1.30;1.20;;;;;;;21.31;65.98;100725.39;1692372;83;22261;-82
2021/08/28 09:33:34;;;;;;;1.35;1.20;;;;;;;21.23;65.74;100717.95;1687097;83;21106;-82
2021/08/28 09:36:00;;;;;;;1.77;1.30;;;;;;;21.21;65.45;100722.88;1688096;83;21440;-82
2021/08/28 09:38:27;;;;;;;1.37;1.17;;;;;;;21.17;65.28;100717.42;1685690;83;210822;-82
2021/08/28 09:40:59;;;;;;;2.05;1.10;;;;;;;21.15;65.06;100719.67;1688262;84;21552;-82
2021/08/28 09:43:27;;;;;;;1.37;1.00;;;;;;;21.11;64.81;100720.78;1685262;83;21134;-82
2021/08/28 09:45:55;;;;;;;2.35;1.10;;;;;;;21.07;64.63;100718.42;1674237;84;21046;-82
2021/08/28 09:48:30;;;;;;;2.33;1.40;;;;;;;21.06;64.55;100720.67;1673096;85;21341;-82
2021/08/28 09:50:59;;;;;;;;;;;;;;;21.13;64.44;100718.91;1676337;84;21494;-82
2021/08/28 09:53:27;;;;;;;1.40;1.30;;;;;;;21.22;63.91;100710.98;1673206;84;20478;-82
2021/08/28 09:56:00;;;;;;;1.92;1.72;;;;;;;21.25;64.01;100714.75;1662040;84;21067;-82
2021/08/28 09:58:32;;;;;;;1.70;1.60;;;;;;;21.26;64.03;100710.34;1673266;84;21519;-82
2021/08/28 10:01:05;;;;;;;3.20;2.10;;;;;;;21.29;63.88;100704.91;1641078;86;21079;-82
2021/08/28 10:03:33;;;;;;;1.90;1.30;;;;;;;21.33;63.80;100708.55;1641754;86;21453;-82
2021/08/28 10:06:01;;;;;;;1.85;1.60;;;;;;;21.35;63.64;100707.14;1651053;85;20900;-82
2021/08/28 10:08:32;;;;;;;4.10;1.45;;;;;;;21.32;63.49;100704.22;1649151;85;21438;-82
2021/08/28 10:11:00;;;;;;;1.80;1.70;;;;;;;21.31;63.42;100705.19;1647846;85;21386;-82
2021/08/28 10:13:29;;;;;;;2.10;1.50;;;;;;;21.31;63.30;100707.82;1654149;85;20925;-82
2021/08/28 10:15:56;;;;;;;2.85;1.98;;;;;;;21.28;63.20;100704.05;1643056;85;21416;-82
2021/08/28 10:18:23;;;;;;;1.60;1.50;;;;;;;21.28;63.13;100704.05;1652992;85;20941;-83
2021/08/28 10:20:52;;;;;;;3.45;2.30;;;;;;;21.23;62.97;100702.16;1641757;85;21572;-82
2021/08/28 10:23:21;;;;;;;1.90;1.80;;;;;;;21.26;62.85;100703.30;1615557;87;21064;-82
2021/08/28 10:25:50;;;;;;;3.27;1.15;;;;;;;21.27;62.86;100697.10;1649888;85;21067;-82
2021/08/28 10:28:19;;;;;;;2.02;1.37;;;;;;;21.36;62.82;100689.10;1648804;85;20963;-82
2021/08/28 10:30:46;;;;;;;1.75;1.45;;;;;;;21.46;62.75;100690.25;1648626;85;21430;-82
2021/08/28 10:33:13;;;;;;;2.33;1.65;;;;;;;21.52;62.40;100689.88;1652597;85;20916;-82
2021/08/28 10:35:41;;;;;;;3.35;1.70;;;;;;;21.59;62.49;100695.63;1644580;85;20937;-82
2021/08/28 10:38:08;;;;;;;2.70;1.50;;;;;;;21.67;62.38;100696.00;1652549;85;28683;-82
2021/08/28 10:40:36;;;;;;;1.60;1.40;;;;;;;21.73;62.15;100694.32;1645965;85;21409;-82
2021/08/28 10:43:06;;;;;;;2.02;1.32;;;;;;;21.75;62.06;100697.23;1653696;85;20962;-82
2021/08/28 10:45:36;;;;;;;1.47;1.10;;;;;;;21.77;61.96;100695.36;1635604;86;21477;-82
2021/08/28 10:48:06;;;;;;;4.62;1.30;;;;;;;21.83;61.77;100690.19;1634694;86;21485;-82
2021/08/28 10:50:39;;;;;;;0.80;0.80;;;;;;;21.80;61.68;100689.91;1619937;86;21099;-82
2021/08/28 10:53:09;;;;;;;1.10;1.00;;;;;;;21.80;61.54;100699.12;1666222;85;20969;-82
2021/08/28 10:55:48;;;;;;;1.10;1.00;;;;;;;21.81;61.36;100684.17;1630352;86;21687;-82
2021/08/28 10:58:23;;;;;;;1.98;1.10;;;;;;;21.80;61.39;100687.27;1656698;85;21496;-82
2021/08/28 11:00:53;;;;;;;1.45;1.00;;;;;;;21.88;61.26;100688.55;1613550;87;21114;-82
2021/08/28 11:03:30;;;;;;;1.22;0.95;;;;;;;21.87;61.11;100686.86;1604836;87;21085;-82
2021/08/28 11:06:18;;;;;;;2.15;1.07;;;;;;;21.92;61.13;100683.00;1610361;87;21081;-82
2021/08/28 11:08:57;;;;;;;3.10;1.05;;;;;;;21.92;60.79;100679.52;1609856;87;21702;-82
2021/08/28 11:11:38;;;;;;;0.80;0.80;;;;;;;21.97;60.86;100678.30;1629136;86;21129;-82
2021/08/28 11:14:13;;;;;;;1.20;1.10;;;;;;;22.07;60.81;100679.92;1617131;86;21147;-82
2021/08/28 11:16:47;;;;;;;2.30;1.30;;;;;;;22.16;60.58;100685.93;1624755;86;21201;-82
2021/08/28 11:19:32;;;;;;;1.85;1.50;;;;;;;22.20;60.52;100686.11;1621773;87;21068;-80
2021/08/28 11:21:58;;;;;;;1.27;1.02;;;;;;;22.27;60.45;100680.83;1614990;87;21723;-80
2021/08/28 11:24:31;;;;;;;1.57;1.07;;;;;;;22.36;60.34;100688.12;1668848;85;21076;-80
2021/08/28 11:27:01;;;;;;;1.10;1.00;;;;;;;22.41;60.23;100685.19;1608044;87;21069;-80
2021/08/28 11:29:33;;;;;;;0.70;0.70;;;;;;;22.45;60.17;100683.58;1610109;85;21069;-80
2021/08/28 11:32:21;;;;;;;1.07;0.98;;;;;;;22.49;60.06;100686.86;1606936;87;21073;-80
2021/08/28 11:34:54;;;;;;;0.80;0.80;;;;;;;22.51;59.93;100683.66;1610811;87;21145;-80
2021/08/28 11:37:30;;;;;;;1.10;0.70;;;;;;;22.51;59.80;100684.98;1633363;86;21175;-80